フランクフルト の空港の天気 - METARとTAF

フランクフルト国際空港 ( EDDF / FRA ) - ドイツ フランクフルト・アム・マイン
飛行場実況気象(Metar)
観測時間06/03 07:50 CEST (06/03 05:50 UTC)
風向・風速北 2m/s
視程10km以上
天気現象
少しの雲 雲底高度 910m
気温17℃
湿度63%
気圧1007hPa
METAREDDF 030550Z 36003KT 300V030 9999 FEW030 17/10 Q1007 NOSIG
過去の天気等 Google飛行場航空写真 Wunderground天気予報

過去48時間のMETAR

飛行場予報(TAF)
発表時間: 6/03 07:00 CEST (6/03 05:00 UTC)
予報対象時間: 3日8時 CEST ~ 4日14時 CEST
風向・風速東北東 2m/s
視程10km以上
なし
3日10時 CEST ~ 3日13時 CEST に徐々に
風向・風速西南西 3m/s
3日15時 CEST ~ 3日22時 CEST に 確率 40% で一時的に
風向・風速西 10m/s 瞬間風速 18m/s
天気現象雷雨
全天の8割程度の積乱雲 雲底高度 1830m
3日20時 CEST ~ 3日22時 CEST に徐々に
風向・風速東北東 2m/s
4日6時 CEST ~ 4日8時 CEST に徐々に
風向・風速南南西 3m/s
4日6時 CEST ~ 4日14時 CEST に一時的に
天気現象しゅう雨
全天の8割程度の積乱雲 雲底高度 760m
4日6時 CEST ~ 4日14時 CEST に 確率 30% で一時的に
天気現象雷雨
TAF EDDF 030500Z 0306/0412 07003KT CAVOK
BECMG 0308/0311 25005KT
PROB40 TEMPO 0313/0320 27020G35KT TSRA BKN060CB
BECMG 0318/0320 06004KT
BECMG 0404/0406 20006KT
TEMPO 0404/0412 SHRA BKN025CB
PROB30 TEMPO 0404/0412 TSRA